Latest Weather Observations for Larapuna (Eddystone Point)

IDT60801

Issued at 5:05 am EST Thursday 24 April 2014 (issued every 30 minutes, with the page automatically refreshed every 10 minutes)

About weather observations | Map of weather stations | Latest weather observations for TAS | Other Formats
Station Details ID: 092045 Name: LARAPUNA (EDDYSTONE POINT) Lat: -40.99 Lon: 148.35 Height: 19.7 m
Data from the previous 72 hours. | See also: Recent months at Larapuna (Eddystone Point)
Date/Time
EST
Temp
°C
App
Temp
°C
Dew
Point
Rel
Hum
%
Delta-T
°C
Wind Press
QNH
hPa
Press
MSL
hPa
Rain
since 9 am
mm
Dir
 
Spd
km/h
Gust
km/h
Spd
kts
Gust
kts
24/05:00am 15.8 8.1 11.4 75 2.4 NNW 43 57 23 31 1003.3 - 0.0
24/04:50am 15.8 7.9 11.6 76 2.3 NNW 44 63 24 34 1003.4 - 0.0
24/04:30am 15.7 7.9 11.7 77 2.2 NNW 44 59 24 32 1003.5 - 0.0
24/04:00am 15.4 8.6 11.8 79 1.9 NNW 39 52 21 28 1004.2 - 0.0
24/03:30am 14.0 8.4 10.0 77 2.1 NNW 30 37 16 20 1004.6 - 0.0
24/03:00am 13.9 8.9 9.7 76 2.2 NNW 26 35 14 19 1005.4 1005.4 0.0
24/02:30am 13.5 8.5 9.6 77 2.0 NNW 26 33 14 18 1006.2 - 0.0
24/02:00am 13.3 8.3 9.4 77 2.0 NW 26 33 14 18 1006.8 - 0.0
24/01:30am 13.6 8.1 9.3 75 2.2 NW 28 37 15 20 1007.2 - 0.0
24/01:00am 13.6 8.1 9.1 74 2.3 NW 28 37 15 20 1007.7 - 0.0
24/12:30am 13.7 8.5 9.0 73 2.4 NW 26 33 14 18 1008.0 - 0.0
24/12:00am 13.6 8.2 9.5 76 2.1 NW 28 39 15 21 1008.3 1008.3 0.0
 
Date/Time
EST
Temp
°C
App
Temp
°C
Dew
Point
Rel
Hum
%
Delta-T
°C
Wind Press
QNH
hPa
Press
MSL
hPa
Rain
since 9 am
mm
Dir
 
Spd
km/h
Gust
km/h
Spd
kts
Gust
kts
23/11:30pm 13.7 6.6 9.7 77 2.1 NW 37 44 20 24 1008.4 - 0.0
23/11:00pm 13.6 7.3 9.6 77 2.0 NW 33 43 18 23 1009.0 - 0.0
23/10:30pm 13.1 9.0 10.1 82 1.5 NW 22 28 12 15 1009.6 - 0.0
23/10:00pm 12.8 10.5 10.3 85 1.3 NNW 13 24 7 13 1010.1 - 0.0
23/09:30pm 13.0 10.0 10.5 85 1.3 NNW 17 22 9 12 1010.4 - 0.0
23/09:00pm 13.0 9.5 10.2 83 1.4 NNW 19 24 10 13 1010.7 1010.7 0.0
23/08:30pm 12.8 9.1 10.0 83 1.4 NW 20 28 11 15 1010.9 - 0.0
23/08:00pm 13.2 9.9 10.9 86 1.2 NNW 19 22 10 12 1011.1 - 0.0
23/07:30pm 13.3 10.4 11.0 86 1.2 NNW 17 22 9 12 1011.3 - 0.0
23/07:00pm 13.3 9.8 11.0 86 1.2 NNW 20 28 11 15 1011.4 - 0.0
23/06:30pm 12.8 6.9 10.5 86 1.2 NNW 32 43 17 23 1011.7 - 0.0
23/06:22pm 13.3 8.2 10.5 83 1.5 NW 28 44 15 24 1011.8 - 0.0
23/06:00pm 14.6 10.9 10.2 75 2.3 NW 20 26 11 14 1011.5 1011.5 0.0
23/05:30pm 14.7 11.0 10.1 74 2.4 NNW 20 28 11 15 1011.4 - 0.0
23/05:00pm 15.1 11.6 10.3 73 2.5 NNW 19 24 10 13 1011.5 - 0.0
23/04:30pm 15.1 10.8 9.5 69 2.9 NW 22 30 12 16 1011.6 - 0.0
23/04:00pm 15.6 12.0 9.7 68 3.1 WNW 19 28 10 15 1011.8 - 0.0
23/03:30pm 15.7 11.0 9.4 66 3.3 NW 24 33 13 18 1011.8 - 0.0
23/03:00pm 16.0 11.8 9.9 67 3.2 NW 22 32 12 17 1012.0 1012.0 0.0
23/02:30pm 16.5 10.5 8.7 60 4.0 NW 30 41 16 22 1012.1 - 0.0
23/02:00pm 15.9 10.9 9.6 66 3.3 NW 26 33 14 18 1012.3 - 0.0
23/01:30pm 16.4 12.4 10.5 68 3.1 N 22 30 12 16 1012.5 - 0.0
23/01:00pm 15.4 11.9 10.8 74 2.4 NNW 20 26 11 14 1013.0 - 0.0
23/12:30pm 15.6 12.0 9.9 69 3.0 N 19 22 10 12 1013.6 - 0.0
23/12:00pm 15.9 12.2 10.2 69 3.0 N 20 22 11 12 1014.2 1014.2 0.0
23/11:30am 14.9 12.1 9.9 72 2.6 NNW 15 19 8 10 1014.7 - 0.0
23/11:00am 14.4 10.6 9.2 71 2.7 WNW 19 24 10 13 1015.2 - 0.0
23/10:30am 15.8 12.4 9.0 64 3.5 NNW 17 28 9 15 1015.3 - 0.0
23/10:00am 16.3 12.9 9.3 63 3.6 NW 17 24 9 13 1015.5 - 0.0
23/09:30am 15.9 13.8 9.8 67 3.2 WNW 11 15 6 8 1015.5 - 0.0
23/09:00am 15.2 12.9 9.1 67 3.1 W 11 15 6 8 1015.6 1015.6 3.8
23/08:30am 13.9 11.0 8.1 68 2.9 W 13 15 7 8 1015.6 - 3.8
23/08:00am 12.8 9.5 7.9 72 2.4 W 15 17 8 9 1015.8 - 3.8
23/07:30am 11.8 7.7 7.9 77 1.9 W 19 22 10 12 1015.8 - 3.8
23/07:00am 9.9 5.4 7.0 82 1.4 WNW 20 22 11 12 1015.4 - 3.8
23/06:30am 9.8 5.3 7.1 83 1.3 WNW 20 24 11 13 1015.2 - 3.8
23/06:00am 9.7 5.2 6.8 82 1.4 W 20 22 11 12 1015.2 1015.2 3.8
23/05:30am 9.3 5.9 6.0 80 1.5 W 13 17 7 9 1015.1 - 3.8
23/05:00am 9.9 7.0 6.4 79 1.6 W 11 13 6 7 1014.9 - 3.8
23/04:30am 10.7 8.7 7.2 79 1.7 WSW 7 11 4 6 1014.8 - 3.8
23/04:00am 9.8 7.5 5.8 76 1.8 SSW 7 9 4 5 1014.8 - 3.8
23/03:30am 10.0 6.2 5.8 75 1.9 W 15 19 8 10 1014.8 - 3.8
23/03:00am 10.2 5.7 6.0 75 1.9 W 19 26 10 14 1014.5 1014.5 3.8
23/02:30am 10.1 5.3 5.5 73 2.1 WNW 20 24 11 13 1014.8 - 3.8
23/02:00am 10.4 5.2 5.4 71 2.3 W 22 28 12 15 1014.9 - 3.8
23/01:30am 10.8 5.3 6.0 72 2.2 WNW 24 30 13 16 1014.8 - 3.8
23/01:00am 10.8 4.5 5.8 71 2.3 W 28 35 15 19 1014.8 - 3.8
23/12:30am 10.7 5.1 5.5 70 2.4 W 24 32 13 17 1014.8 - 3.8
23/12:00am 10.9 4.9 5.4 69 2.5 W 26 33 14 18 1014.7 1014.7 3.8
 
Date/Time
EST
Temp
°C
App
Temp
°C
Dew
Point
Rel
Hum
%
Delta-T
°C
Wind Press
QNH
hPa
Press
MSL
hPa
Rain
since 9 am
mm
Dir
 
Spd
km/h
Gust
km/h
Spd
kts
Gust
kts
22/11:30pm 11.1 4.7 5.2 67 2.7 W 28 35 15 19 1014.6 - 3.8
22/11:00pm 11.3 4.5 5.2 66 2.8 W 30 39 16 21 1014.5 - 3.8
22/10:30pm 11.1 5.1 5.4 68 2.6 W 26 35 14 19 1014.4 - 3.8
22/10:00pm 11.2 6.0 5.5 68 2.6 W 22 32 12 17 1014.3 - 3.8
22/09:30pm 11.8 7.1 5.9 67 2.8 WNW 20 32 11 17 1013.9 - 3.8
22/09:00pm 11.6 7.0 6.7 72 2.3 WNW 20 26 11 14 1013.5 1013.5 3.8
22/08:30pm 11.3 7.1 7.4 77 1.9 NW 19 26 10 14 1012.9 - 3.8
22/08:00pm 11.7 6.6 7.6 76 2.0 WNW 24 30 13 16 1012.6 - 3.8
22/07:30pm 12.3 8.0 7.8 74 2.2 WNW 20 24 11 13 1012.3 - 3.8
22/07:00pm 12.9 8.7 8.4 74 2.2 WNW 20 24 11 13 1012.3 - 3.8
22/06:30pm 13.5 10.1 9.2 75 2.2 WNW 17 20 9 11 1011.7 - 3.8
22/06:00pm 14.2 10.6 9.8 75 2.3 NW 19 22 10 12 1011.3 1011.3 3.8
22/05:30pm 14.9 11.4 10.1 73 2.5 NW 19 24 10 13 1010.9 - 3.8
22/05:00pm 15.7 11.2 10.2 70 2.9 WNW 24 32 13 17 1010.4 - 3.8
22/04:30pm 16.6 12.2 10.5 67 3.2 WNW 24 33 13 18 1010.2 - 3.8
22/04:00pm 16.8 12.2 10.9 68 3.2 WNW 26 37 14 20 1009.9 - 3.8
22/03:30pm 17.0 11.1 10.4 65 3.5 WNW 32 54 17 29 1009.5 - 3.8
22/03:00pm 17.0 11.1 10.6 66 3.4 WNW 32 54 17 29 1009.4 1009.4 3.8
22/02:31pm 17.5 11.4 9.9 61 4.0 WNW 32 52 17 28 1009.3 - 3.8
22/02:30pm 17.8 12.3 10.7 63 3.8 WNW 30 44 16 24 1009.3 - 3.8
22/02:00pm 17.8 12.0 11.6 67 3.4 WNW 33 43 18 23 1008.9 - 3.8
22/01:49pm 17.9 12.4 11.9 68 3.3 NW 32 57 17 31 1008.8 - 3.8
22/01:30pm 18.1 13.0 13.2 73 2.8 WNW 32 46 17 25 1008.7 - 3.8
22/01:00pm 17.2 12.4 14.1 82 1.8 NW 32 46 17 25 1009.1 - 3.8
22/12:31pm 16.8 12.6 14.6 87 1.3 WNW 30 50 16 27 1009.0 - 3.8
22/12:30pm 16.7 12.1 14.5 87 1.3 WNW 32 50 17 27 1009.0 - 3.8
22/12:00pm 15.5 8.2 14.4 93 0.6 NW 46 65 25 35 1009.0 1009.0 3.6
22/11:30am 15.2 7.8 14.1 93 0.6 NW 46 65 25 35 1009.0 - 3.2
22/11:00am 15.3 7.1 14.2 93 0.6 NNW 50 69 27 37 1008.8 - 2.2
22/10:35am 15.3 8.3 14.2 93 0.6 NW 44 63 24 34 1009.3 - 2.0
22/10:30am 15.3 8.9 14.2 93 0.6 NW 41 56 22 30 1009.7 - 2.0
22/10:16am 15.2 9.0 13.9 92 0.7 NW 39 57 21 31 1009.8 - 1.6
22/10:00am 15.0 7.4 13.7 92 0.7 NW 46 61 25 33 1009.8 - 1.4
22/09:30am 15.0 8.0 13.7 92 0.7 NW 43 61 23 33 1009.7 - 0.6
22/09:07am 15.1 8.1 13.8 92 0.7 NW 43 63 23 34 1009.8 - 0.0
22/09:00am 15.2 8.3 13.9 92 0.7 NW 43 57 23 31 1009.9 1009.9 7.6
22/08:32am 15.2 8.7 13.9 92 0.7 NW 41 59 22 32 1009.8 - 6.0
22/08:30am 15.2 8.7 13.9 92 0.7 NW 41 56 22 30 1009.9 - 6.0
22/08:10am 15.2 8.2 13.7 91 0.8 NW 43 61 23 33 1009.9 - 5.0
22/08:00am 15.3 8.1 13.8 91 0.8 NW 44 56 24 30 1009.6 - 4.8
22/07:30am 15.3 8.3 13.8 91 0.8 NW 43 59 23 32 1009.1 - 4.4
22/07:00am 15.7 9.0 13.5 87 1.2 NW 41 65 22 35 1009.0 - 3.6
22/06:31am 16.1 9.3 13.2 83 1.6 NW 41 59 22 32 1008.3 - 3.4
22/06:30am 16.1 9.4 13.4 84 1.5 NW 41 54 22 29 1008.3 - 3.4
22/06:00am 15.7 8.7 13.7 88 1.1 NW 43 61 23 33 1008.3 1008.3 3.4
22/05:30am 16.4 7.1 12.9 80 1.9 NW 54 72 29 39 1008.3 - 3.2
22/05:00am 16.7 9.0 12.0 74 2.6 NW 44 67 24 36 1008.3 - 3.2
22/04:48am 16.7 9.7 12.5 76 2.3 NW 41 61 22 33 1008.3 - 3.2
22/04:30am 16.2 11.0 12.9 81 1.8 NNW 32 44 17 24 1008.3 - 3.2
22/04:00am 15.8 11.1 13.1 84 1.5 NW 30 39 16 21 1008.2 - 3.2
22/03:30am 15.7 11.5 13.4 86 1.3 NW 28 35 15 19 1008.6 - 3.2
22/03:00am 15.3 11.8 13.3 88 1.1 NW 24 32 13 17 1008.7 1008.7 3.2
22/02:30am 15.3 10.6 13.1 87 1.2 NW 30 41 16 22 1009.2 - 3.2
22/02:00am 15.5 11.0 13.7 89 1.0 NNW 30 39 16 21 1009.5 - 3.2
22/01:30am 15.6 9.3 13.6 88 1.1 NNW 39 52 21 28 1010.3 - 2.8
22/01:14am 15.8 9.6 13.8 88 1.1 NNW 39 57 21 31 1010.1 - 2.8
22/01:00am 15.9 9.7 13.7 87 1.2 NNW 39 50 21 27 1010.1 - 2.8
22/12:30am 16.2 11.2 14.0 87 1.2 NNW 33 43 18 23 1011.0 - 2.4
22/12:00am 16.2 11.7 13.7 85 1.4 N 30 35 16 19 1011.5 1011.5 2.4
 
Date/Time
EST
Temp
°C
App
Temp
°C
Dew
Point
Rel
Hum
%
Delta-T
°C
Wind Press
QNH
hPa
Press
MSL
hPa
Rain
since 9 am
mm
Dir
 
Spd
km/h
Gust
km/h
Spd
kts
Gust
kts
21/11:30pm 16.0 11.5 13.7 86 1.3 N 30 35 16 19 1011.8 - 2.4
21/11:00pm 16.4 10.3 13.1 81 1.8 N 37 46 20 25 1012.0 - 2.0
21/10:30pm 16.1 11.2 13.6 85 1.4 N 32 41 17 22 1012.3 - 2.0
21/10:00pm 15.8 11.1 13.1 84 1.5 N 30 37 16 20 1013.0 - 2.0
21/09:30pm 15.9 12.7 13.2 84 1.5 N 22 30 12 16 1013.3 - 1.8
21/09:00pm 15.7 12.4 12.8 83 1.6 N 22 26 12 14 1013.4 1013.4 1.8
21/08:30pm 15.6 12.3 12.9 84 1.5 N 22 30 12 16 1013.7 - 1.8
21/08:00pm 15.0 12.2 12.5 85 1.4 N 19 24 10 13 1014.0 - 1.8
21/07:30pm 14.5 10.5 11.8 84 1.5 NNW 24 32 13 17 1014.3 - 1.8
21/07:00pm 15.6 10.7 11.4 76 2.3 N 28 33 15 18 1014.1 - 1.0
21/06:30pm 15.2 10.1 11.8 80 1.8 N 30 37 16 20 1014.0 - 1.0
21/06:00pm 14.4 9.2 11.6 83 1.5 N 30 37 16 20 1014.2 1014.2 1.0
21/05:30pm 14.5 9.0 11.8 84 1.5 N 32 41 17 22 1014.5 - 1.0
21/05:00pm 14.3 10.8 12.3 88 1.1 NNW 22 32 12 17 1014.8 - 1.0
21/04:30pm 13.6 11.7 11.8 89 1.0 N 13 19 7 10 1014.8 - 1.0
21/04:00pm 13.4 12.7 11.3 87 1.1 WNW 6 13 3 7 1015.3 - 0.8
21/03:30pm 13.6 12.2 10.9 84 1.4 N 9 11 5 6 1015.6 - 0.8
21/03:00pm 14.0 13.9 10.8 81 1.7 ENE 2 9 1 5 1015.8 1015.8 0.8
21/02:30pm 13.9 13.3 10.5 80 1.8 SSE 4 9 2 5 1015.8 - 0.8
21/02:00pm 13.8 11.6 10.8 82 1.6 S 13 17 7 9 1016.2 - 0.8
21/01:30pm 12.9 9.8 10.3 84 1.3 SSW 17 20 9 11 1016.8 - 0.8
21/01:00pm 12.7 9.7 10.6 87 1.1 SSW 17 20 9 11 1017.0 - 0.8
21/12:30pm 12.0 8.8 9.9 87 1.1 S 17 22 9 12 1017.5 - 0.8
21/12:00pm 11.7 8.5 9.8 88 1.0 S 17 19 9 10 1017.9 1017.9 0.8
21/11:30am 11.9 8.6 9.6 86 1.2 SSW 17 20 9 11 1018.1 - 0.8
21/11:00am 12.0 8.6 9.0 82 1.5 SSW 17 20 9 11 1018.4 - 0.2
21/10:30am 11.9 8.0 8.6 80 1.6 SSW 19 22 10 12 1018.7 - 0.2
21/10:00am 12.4 8.3 8.5 77 1.9 SSW 20 24 11 13 1018.8 - 0.0
21/09:30am 12.8 8.5 7.9 72 2.4 SSW 20 24 11 13 1019.1 - 0.0
21/09:00am 13.2 9.3 8.5 73 2.3 SSW 19 24 10 13 1019.0 1019.0 0.0
21/08:30am 13.3 9.3 8.2 71 2.5 SW 19 24 10 13 1019.2 - 0.0
21/08:00am 13.4 10.3 7.4 67 2.9 ESE 13 17 7 9 1018.8 - 0.0
21/07:30am 12.8 10.0 6.8 67 2.9 ESE 11 17 6 9 1018.6 - 0.0
21/07:00am 12.2 9.0 6.7 69 2.6 ESE 13 17 7 9 1018.4 - 0.0
21/06:30am 11.7 8.1 6.8 72 2.3 SE 15 20 8 11 1018.2 - 0.0
21/06:00am 11.1 8.7 7.2 77 1.9 SSE 9 17 5 9 1017.9 1017.9 0.0
21/05:30am 11.7 11.1 7.4 75 2.1 CALM 0 0 0 0 1017.8 - 0.0

Other Formats:

Comma delimited format used in spreadsheet applications
http://www.bom.gov.au/fwo/IDT60801/IDT60801.94983.axf

JavaScript Object Notation format (JSON) in row-major order
http://www.bom.gov.au/fwo/IDT60801/IDT60801.94983.json